Saturday, August 18, 2018, 5:53 PM GMT
Back to Local

CWEP, East Point, P. E. I

Location: , , Canada Lat: 46.45
Local Time: 5:53 PM GMT (17:53 GMT) Lon: -61.967
Time Zone: GMT Elev: 36 ft

Show me the last for .
Show Coded

Time T Td Feel RH Dir Speed Gust Alt SLP Vis Weather Sky Remarks
2018-08-18 17:00 64 62 - 90 110° 6 - - 29.89 0 1-hr Precip Total: 0.39"
2018-08-18 16:00 65 61 - 89 40° 7 - - 29.91 0 1-hr Precip Total: 0.22"
2018-08-18 15:00 64 59 - 84 350° 5 - - 29.91 0 1-hr Precip Total: 0.06"
2018-08-18 14:00 64 60 - 88 310° 7 - - 29.91 0 1-hr Precip Total: 0.11"
2018-08-18 13:00 64 60 - 86 270° 7 - - 29.92 0 1-hr Precip Total: 0.02"
2018-08-18 12:00 65 61 - 87 230° 5 - - 29.93 0 1-hr Precip Total: 0.02"
2018-08-18 11:00 66 61 - 82 220° 7 - - 29.94 0 None
2018-08-18 10:00 67 61 - 82 200° 9 - - 29.94 0 None
2018-08-18 09:00 66 59 - 79 190° 7 - - 29.94 0 None
2018-08-18 08:00 65 58 - 75 180° 8 - - 29.94 0 None
2018-08-18 07:00 66 56 - 70 190° 12 - - 29.96 0 None
2018-08-18 06:00 65 53 - 63 190° 12 - - 29.98 0 None
2018-08-18 05:00 65 55 - 70 180° 12 17 - 30.00 0 None
2018-08-18 04:00 64 54 - 70 180° 9 - - 30.01 0 None
2018-08-18 03:00 63 53 - 70 170° 9 - - 30.01 0 None
2018-08-18 02:00 63 53 - 69 150° 10 - - 30.03 0 None
2018-08-18 01:00 62 52 - 70 150° 7 - - 30.04 0 None
2018-08-18 00:00 61 53 - 75 140° 5 - - 30.05 0 None
2018-08-17 23:00 63 52 - 66 130° 3 - - 30.05 0 None
2018-08-17 22:00 66 53 - 62 90° 5 - - 30.04 0 None
2018-08-17 21:00 67 51 - 58 10° 6 - - 30.05 0 None
2018-08-17 20:00 67 52 - 58 360° 7 - - 30.06 0 None
2018-08-17 19:00 67 53 - 59 340° 7 - - 30.06 0 None
2018-08-17 18:00 67 52 - 58 340° 7 - - 30.06 0 None

Support USWX by starting your Amazon purchase here.